sensor_id;sensor_type;location;lat;lon;timestamp;P1;durP1;ratioP1;P2;durP2;ratioP2
14847;SDS011;7516;43.570;1.448;2022-10-14T00:00:16;3.55;;;1.48;;
14847;SDS011;7516;43.570;1.448;2022-10-14T00:02:45;2.83;;;1.60;;
14847;SDS011;7516;43.570;1.448;2022-10-14T00:05:14;3.45;;;1.52;;
14847;SDS011;7516;43.570;1.448;2022-10-14T00:07:41;2.63;;;1.38;;
14847;SDS011;7516;43.570;1.448;2022-10-14T00:10:09;4.63;;;1.30;;
14847;SDS011;7516;43.570;1.448;2022-10-14T00:12:37;3.88;;;1.38;;
14847;SDS011;7516;43.570;1.448;2022-10-14T00:15:05;3.65;;;1.35;;
14847;SDS011;7516;43.570;1.448;2022-10-14T00:17:34;3.45;;;1.50;;
14847;SDS011;7516;43.570;1.448;2022-10-14T00:20:03;3.25;;;1.55;;
14847;SDS011;7516;43.570;1.448;2022-10-14T00:22:31;3.08;;;1.27;;
14847;SDS011;7516;43.570;1.448;2022-10-14T00:24:59;3.88;;;1.50;;
14847;SDS011;7516;43.570;1.448;2022-10-14T00:27:26;3.05;;;1.40;;
14847;SDS011;7516;43.570;1.448;2022-10-14T00:29:54;1.98;;;1.58;;
14847;SDS011;7516;43.570;1.448;2022-10-14T00:32:22;3.97;;;1.50;;
14847;SDS011;7516;43.570;1.448;2022-10-14T00:34:49;3.25;;;1.50;;
14847;SDS011;7516;43.570;1.448;2022-10-14T00:37:18;3.03;;;1.40;;
14847;SDS011;7516;43.570;1.448;2022-10-14T00:39:45;3.55;;;1.70;;
14847;SDS011;7516;43.570;1.448;2022-10-14T00:42:13;2.35;;;1.20;;
14847;SDS011;7516;43.570;1.448;2022-10-14T00:44:58;3.88;;;1.52;;
14847;SDS011;7516;43.570;1.448;2022-10-14T00:47:38;2.35;;;1.05;;
14847;SDS011;7516;43.570;1.448;2022-10-14T00:50:08;2.85;;;1.27;;
14847;SDS011;7516;43.570;1.448;2022-10-14T00:52:38;2.85;;;1.30;;
14847;SDS011;7516;43.570;1.448;2022-10-14T00:55:07;1.40;;;1.10;;
14847;SDS011;7516;43.570;1.448;2022-10-14T00:57:38;2.13;;;1.05;;
14847;SDS011;7516;43.570;1.448;2022-10-14T01:00:07;2.60;;;1.73;;
14847;SDS011;7516;43.570;1.448;2022-10-14T01:02:36;1.75;;;1.20;;
14847;SDS011;7516;43.570;1.448;2022-10-14T01:05:05;1.80;;;1.10;;
14847;SDS011;7516;43.570;1.448;2022-10-14T01:07:42;2.17;;;1.23;;
14847;SDS011;7516;43.570;1.448;2022-10-14T01:10:21;1.20;;;1.10;;
14847;SDS011;7516;43.570;1.448;2022-10-14T01:12:59;2.63;;;1.30;;
14847;SDS011;7516;43.570;1.448;2022-10-14T01:15:34;1.77;;;1.10;;
14847;SDS011;7516;43.570;1.448;2022-10-14T01:18:17;1.20;;;1.10;;
14847;SDS011;7516;43.570;1.448;2022-10-14T01:21:09;1.52;;;0.90;;
14847;SDS011;7516;43.570;1.448;2022-10-14T01:26:52;1.17;;;0.80;;
14847;SDS011;7516;43.570;1.448;2022-10-14T01:30:01;2.17;;;1.00;;
14847;SDS011;7516;43.570;1.448;2022-10-14T01:32:35;1.70;;;1.00;;
14847;SDS011;7516;43.570;1.448;2022-10-14T01:35:12;0.98;;;0.75;;
14847;SDS011;7516;43.570;1.448;2022-10-14T01:37:49;1.35;;;0.90;;
14847;SDS011;7516;43.570;1.448;2022-10-14T01:40:23;2.65;;;1.02;;
14847;SDS011;7516;43.570;1.448;2022-10-14T01:42:54;2.30;;;0.90;;
14847;SDS011;7516;43.570;1.448;2022-10-14T01:45:27;1.85;;;0.90;;
14847;SDS011;7516;43.570;1.448;2022-10-14T01:47:57;1.92;;;0.90;;
14847;SDS011;7516;43.570;1.448;2022-10-14T01:50:27;1.15;;;0.82;;
14847;SDS011;7516;43.570;1.448;2022-10-14T01:52:58;1.83;;;0.60;;
14847;SDS011;7516;43.570;1.448;2022-10-14T01:55:30;0.93;;;0.75;;
14847;SDS011;7516;43.570;1.448;2022-10-14T01:58:01;1.92;;;0.80;;
14847;SDS011;7516;43.570;1.448;2022-10-14T02:00:32;1.30;;;0.65;;
14847;SDS011;7516;43.570;1.448;2022-10-14T02:03:00;2.08;;;0.70;;
14847;SDS011;7516;43.570;1.448;2022-10-14T02:05:29;1.63;;;0.50;;
14847;SDS011;7516;43.570;1.448;2022-10-14T02:08:02;1.25;;;0.52;;
14847;SDS011;7516;43.570;1.448;2022-10-14T02:10:39;0.80;;;0.50;;
14847;SDS011;7516;43.570;1.448;2022-10-14T02:13:18;1.00;;;0.57;;
14847;SDS011;7516;43.570;1.448;2022-10-14T02:15:59;0.68;;;0.63;;
14847;SDS011;7516;43.570;1.448;2022-10-14T02:18:34;0.73;;;0.43;;
14847;SDS011;7516;43.570;1.448;2022-10-14T02:21:07;1.58;;;0.98;;
14847;SDS011;7516;43.570;1.448;2022-10-14T02:23:43;0.63;;;0.40;;
14847;SDS011;7516;43.570;1.448;2022-10-14T02:26:13;0.68;;;0.40;;
14847;SDS011;7516;43.570;1.448;2022-10-14T02:28:42;1.10;;;0.80;;
14847;SDS011;7516;43.570;1.448;2022-10-14T02:31:13;2.15;;;0.60;;
14847;SDS011;7516;43.570;1.448;2022-10-14T02:33:44;0.93;;;0.60;;
14847;SDS011;7516;43.570;1.448;2022-10-14T02:36:17;0.98;;;0.57;;
14847;SDS011;7516;43.570;1.448;2022-10-14T02:38:47;1.20;;;0.52;;
14847;SDS011;7516;43.570;1.448;2022-10-14T02:41:17;1.25;;;0.50;;
14847;SDS011;7516;43.570;1.448;2022-10-14T02:43:48;1.35;;;0.50;;
14847;SDS011;7516;43.570;1.448;2022-10-14T02:46:19;0.60;;;0.50;;
14847;SDS011;7516;43.570;1.448;2022-10-14T02:48:47;0.90;;;0.60;;
14847;SDS011;7516;43.570;1.448;2022-10-14T02:51:15;0.98;;;0.50;;
14847;SDS011;7516;43.570;1.448;2022-10-14T02:53:43;0.85;;;0.82;;
14847;SDS011;7516;43.570;1.448;2022-10-14T02:56:11;0.98;;;0.70;;
14847;SDS011;7516;43.570;1.448;2022-10-14T02:58:39;2.38;;;0.63;;
14847;SDS011;7516;43.570;1.448;2022-10-14T03:01:06;1.45;;;0.50;;
14847;SDS011;7516;43.570;1.448;2022-10-14T03:03:35;1.30;;;0.50;;
14847;SDS011;7516;43.570;1.448;2022-10-14T03:06:03;0.57;;;0.40;;
14847;SDS011;7516;43.570;1.448;2022-10-14T03:08:31;0.50;;;0.50;;
14847;SDS011;7516;43.570;1.448;2022-10-14T03:10:58;0.70;;;0.38;;
14847;SDS011;7516;43.570;1.448;2022-10-14T03:13:26;1.02;;;0.52;;
14847;SDS011;7516;43.570;1.448;2022-10-14T03:15:53;1.13;;;0.52;;
14847;SDS011;7516;43.570;1.448;2022-10-14T03:18:21;1.52;;;0.60;;
14847;SDS011;7516;43.570;1.448;2022-10-14T03:20:49;1.30;;;0.60;;
14847;SDS011;7516;43.570;1.448;2022-10-14T03:23:17;0.70;;;0.50;;
14847;SDS011;7516;43.570;1.448;2022-10-14T03:25:44;0.40;;;0.40;;
14847;SDS011;7516;43.570;1.448;2022-10-14T03:28:12;1.50;;;0.50;;
14847;SDS011;7516;43.570;1.448;2022-10-14T03:30:39;0.80;;;0.50;;
14847;SDS011;7516;43.570;1.448;2022-10-14T03:33:07;1.05;;;0.50;;
14847;SDS011;7516;43.570;1.448;2022-10-14T03:35:34;1.40;;;0.68;;
14847;SDS011;7516;43.570;1.448;2022-10-14T03:38:03;0.50;;;0.40;;
14847;SDS011;7516;43.570;1.448;2022-10-14T03:40:31;0.55;;;0.50;;
14847;SDS011;7516;43.570;1.448;2022-10-14T03:42:58;0.63;;;0.57;;
14847;SDS011;7516;43.570;1.448;2022-10-14T03:45:26;1.45;;;0.80;;
14847;SDS011;7516;43.570;1.448;2022-10-14T03:47:54;1.08;;;0.50;;
14847;SDS011;7516;43.570;1.448;2022-10-14T03:50:21;1.00;;;0.50;;
14847;SDS011;7516;43.570;1.448;2022-10-14T03:52:49;1.17;;;0.50;;
14847;SDS011;7516;43.570;1.448;2022-10-14T03:55:18;0.55;;;0.55;;
14847;SDS011;7516;43.570;1.448;2022-10-14T03:57:45;1.77;;;0.60;;
14847;SDS011;7516;43.570;1.448;2022-10-14T04:00:13;0.65;;;0.50;;
14847;SDS011;7516;43.570;1.448;2022-10-14T04:02:41;2.60;;;0.70;;
14847;SDS011;7516;43.570;1.448;2022-10-14T04:05:09;2.17;;;0.60;;
14847;SDS011;7516;43.570;1.448;2022-10-14T04:07:37;2.40;;;0.68;;
14847;SDS011;7516;43.570;1.448;2022-10-14T04:10:05;0.60;;;0.60;;
14847;SDS011;7516;43.570;1.448;2022-10-14T04:12:34;0.63;;;0.52;;
14847;SDS011;7516;43.570;1.448;2022-10-14T04:15:04;0.60;;;0.50;;
14847;SDS011;7516;43.570;1.448;2022-10-14T04:17:32;1.20;;;0.50;;
14847;SDS011;7516;43.570;1.448;2022-10-14T04:20:00;1.95;;;0.50;;
14847;SDS011;7516;43.570;1.448;2022-10-14T04:22:27;0.60;;;0.50;;
14847;SDS011;7516;43.570;1.448;2022-10-14T04:24:55;0.40;;;0.40;;
14847;SDS011;7516;43.570;1.448;2022-10-14T04:27:22;1.30;;;0.40;;
14847;SDS011;7516;43.570;1.448;2022-10-14T04:29:51;1.23;;;0.40;;
14847;SDS011;7516;43.570;1.448;2022-10-14T04:32:19;1.08;;;0.32;;
14847;SDS011;7516;43.570;1.448;2022-10-14T04:34:46;0.85;;;0.50;;
14847;SDS011;7516;43.570;1.448;2022-10-14T04:37:14;0.45;;;0.35;;
14847;SDS011;7516;43.570;1.448;2022-10-14T04:39:41;0.70;;;0.40;;
14847;SDS011;7516;43.570;1.448;2022-10-14T04:42:09;1.15;;;0.40;;
14847;SDS011;7516;43.570;1.448;2022-10-14T04:44:36;0.88;;;0.30;;
14847;SDS011;7516;43.570;1.448;2022-10-14T04:47:05;1.15;;;0.30;;
14847;SDS011;7516;43.570;1.448;2022-10-14T04:49:33;0.50;;;0.40;;
14847;SDS011;7516;43.570;1.448;2022-10-14T04:52:00;1.02;;;0.35;;
14847;SDS011;7516;43.570;1.448;2022-10-14T04:54:28;1.95;;;0.40;;
14847;SDS011;7516;43.570;1.448;2022-10-14T04:56:55;3.08;;;0.60;;
14847;SDS011;7516;43.570;1.448;2022-10-14T04:59:23;2.63;;;0.65;;
14847;SDS011;7516;43.570;1.448;2022-10-14T05:01:50;2.88;;;0.63;;
14847;SDS011;7516;43.570;1.448;2022-10-14T05:04:19;2.42;;;0.50;;
14847;SDS011;7516;43.570;1.448;2022-10-14T05:06:47;0.70;;;0.50;;
14847;SDS011;7516;43.570;1.448;2022-10-14T05:09:15;0.98;;;0.40;;
14847;SDS011;7516;43.570;1.448;2022-10-14T05:11:42;1.13;;;0.47;;
14847;SDS011;7516;43.570;1.448;2022-10-14T05:14:10;2.30;;;0.47;;
14847;SDS011;7516;43.570;1.448;2022-10-14T05:16:37;1.75;;;0.88;;
14847;SDS011;7516;43.570;1.448;2022-10-14T05:19:05;2.33;;;0.50;;
14847;SDS011;7516;43.570;1.448;2022-10-14T05:21:34;1.20;;;0.57;;
14847;SDS011;7516;43.570;1.448;2022-10-14T05:24:01;1.52;;;0.50;;
14847;SDS011;7516;43.570;1.448;2022-10-14T05:26:29;1.52;;;0.65;;
14847;SDS011;7516;43.570;1.448;2022-10-14T05:28:56;1.15;;;0.50;;
14847;SDS011;7516;43.570;1.448;2022-10-14T05:31:24;1.48;;;0.60;;
14847;SDS011;7516;43.570;1.448;2022-10-14T05:33:51;0.52;;;0.50;;
14847;SDS011;7516;43.570;1.448;2022-10-14T05:36:19;1.55;;;0.52;;
14847;SDS011;7516;43.570;1.448;2022-10-14T05:38:48;0.93;;;0.70;;
14847;SDS011;7516;43.570;1.448;2022-10-14T05:41:15;2.45;;;0.60;;
14847;SDS011;7516;43.570;1.448;2022-10-14T05:43:43;1.05;;;0.52;;
14847;SDS011;7516;43.570;1.448;2022-10-14T05:46:10;1.70;;;0.65;;
14847;SDS011;7516;43.570;1.448;2022-10-14T05:48:37;1.13;;;0.70;;
14847;SDS011;7516;43.570;1.448;2022-10-14T05:51:05;2.22;;;0.68;;
14847;SDS011;7516;43.570;1.448;2022-10-14T05:53:32;0.77;;;0.63;;
14847;SDS011;7516;43.570;1.448;2022-10-14T05:56:02;1.98;;;0.63;;
14847;SDS011;7516;43.570;1.448;2022-10-14T05:58:31;1.15;;;0.60;;
14847;SDS011;7516;43.570;1.448;2022-10-14T06:00:58;0.77;;;0.60;;
14847;SDS011;7516;43.570;1.448;2022-10-14T06:03:26;0.70;;;0.57;;
14847;SDS011;7516;43.570;1.448;2022-10-14T06:05:54;1.30;;;0.55;;
14847;SDS011;7516;43.570;1.448;2022-10-14T06:08:21;0.70;;;0.70;;
14847;SDS011;7516;43.570;1.448;2022-10-14T06:10:50;0.85;;;0.70;;
14847;SDS011;7516;43.570;1.448;2022-10-14T06:13:19;1.92;;;0.77;;
14847;SDS011;7516;43.570;1.448;2022-10-14T06:15:47;1.02;;;0.70;;
14847;SDS011;7516;43.570;1.448;2022-10-14T06:18:14;2.05;;;0.80;;
14847;SDS011;7516;43.570;1.448;2022-10-14T06:20:42;0.93;;;0.82;;
14847;SDS011;7516;43.570;1.448;2022-10-14T06:23:16;2.85;;;1.05;;
14847;SDS011;7516;43.570;1.448;2022-10-14T06:25:43;1.13;;;0.90;;
14847;SDS011;7516;43.570;1.448;2022-10-14T06:28:11;1.35;;;1.00;;
14847;SDS011;7516;43.570;1.448;2022-10-14T06:30:40;1.47;;;0.83;;
14847;SDS011;7516;43.570;1.448;2022-10-14T06:33:07;2.30;;;0.80;;
14847;SDS011;7516;43.570;1.448;2022-10-14T06:35:34;1.35;;;0.80;;
14847;SDS011;7516;43.570;1.448;2022-10-14T06:38:02;1.77;;;0.95;;
14847;SDS011;7516;43.570;1.448;2022-10-14T06:40:29;1.77;;;1.13;;
14847;SDS011;7516;43.570;1.448;2022-10-14T06:42:57;2.13;;;1.00;;
14847;SDS011;7516;43.570;1.448;2022-10-14T06:45:24;2.42;;;1.02;;
14847;SDS011;7516;43.570;1.448;2022-10-14T06:47:53;2.70;;;1.00;;
14847;SDS011;7516;43.570;1.448;2022-10-14T06:50:21;2.88;;;1.10;;
14847;SDS011;7516;43.570;1.448;2022-10-14T06:52:49;2.15;;;0.80;;
14847;SDS011;7516;43.570;1.448;2022-10-14T06:55:16;1.83;;;1.00;;
14847;SDS011;7516;43.570;1.448;2022-10-14T06:57:44;2.28;;;0.90;;
14847;SDS011;7516;43.570;1.448;2022-10-14T07:00:12;3.75;;;1.00;;
14847;SDS011;7516;43.570;1.448;2022-10-14T07:02:39;3.50;;;0.90;;
14847;SDS011;7516;43.570;1.448;2022-10-14T07:05:10;3.63;;;1.00;;
14847;SDS011;7516;43.570;1.448;2022-10-14T07:07:37;1.70;;;1.00;;
14847;SDS011;7516;43.570;1.448;2022-10-14T07:10:05;2.45;;;0.93;;
14847;SDS011;7516;43.570;1.448;2022-10-14T07:12:33;2.40;;;1.00;;
14847;SDS011;7516;43.570;1.448;2022-10-14T07:15:01;2.55;;;1.30;;
14847;SDS011;7516;43.570;1.448;2022-10-14T07:17:29;3.13;;;0.80;;
14847;SDS011;7516;43.570;1.448;2022-10-14T07:19:56;2.72;;;1.10;;
14847;SDS011;7516;43.570;1.448;2022-10-14T07:22:25;2.28;;;1.10;;
14847;SDS011;7516;43.570;1.448;2022-10-14T07:24:53;2.78;;;1.08;;
14847;SDS011;7516;43.570;1.448;2022-10-14T07:27:20;1.35;;;0.80;;
14847;SDS011;7516;43.570;1.448;2022-10-14T07:29:47;3.53;;;1.13;;
14847;SDS011;7516;43.570;1.448;2022-10-14T07:32:16;1.55;;;0.82;;
14847;SDS011;7516;43.570;1.448;2022-10-14T07:34:43;2.22;;;0.93;;
14847;SDS011;7516;43.570;1.448;2022-10-14T07:37:11;2.50;;;0.95;;
14847;SDS011;7516;43.570;1.448;2022-10-14T07:39:40;4.65;;;0.95;;
14847;SDS011;7516;43.570;1.448;2022-10-14T07:42:07;3.63;;;0.98;;
14847;SDS011;7516;43.570;1.448;2022-10-14T07:44:35;3.00;;;1.02;;
14847;SDS011;7516;43.570;1.448;2022-10-14T07:47:04;2.47;;;0.77;;
14847;SDS011;7516;43.570;1.448;2022-10-14T07:49:31;1.98;;;0.88;;
14847;SDS011;7516;43.570;1.448;2022-10-14T07:51:59;2.42;;;0.82;;
14847;SDS011;7516;43.570;1.448;2022-10-14T07:54:27;2.45;;;0.90;;
14847;SDS011;7516;43.570;1.448;2022-10-14T07:56:57;1.67;;;0.70;;
14847;SDS011;7516;43.570;1.448;2022-10-14T07:59:25;1.23;;;0.80;;
14847;SDS011;7516;43.570;1.448;2022-10-14T08:01:52;5.80;;;1.38;;
14847;SDS011;7516;43.570;1.448;2022-10-14T08:04:20;2.70;;;0.80;;
14847;SDS011;7516;43.570;1.448;2022-10-14T08:06:48;3.00;;;0.88;;
14847;SDS011;7516;43.570;1.448;2022-10-14T08:09:17;1.52;;;0.75;;
14847;SDS011;7516;43.570;1.448;2022-10-14T08:11:44;2.10;;;1.00;;
14847;SDS011;7516;43.570;1.448;2022-10-14T08:14:14;1.60;;;0.80;;
14847;SDS011;7516;43.570;1.448;2022-10-14T08:16:41;1.60;;;0.70;;
14847;SDS011;7516;43.570;1.448;2022-10-14T08:19:09;1.50;;;0.80;;
14847;SDS011;7516;43.570;1.448;2022-10-14T08:21:37;1.88;;;1.00;;
14847;SDS011;7516;43.570;1.448;2022-10-14T08:24:05;2.65;;;0.82;;
14847;SDS011;7516;43.570;1.448;2022-10-14T08:26:33;2.00;;;0.70;;
14847;SDS011;7516;43.570;1.448;2022-10-14T08:29:03;1.30;;;0.65;;
14847;SDS011;7516;43.570;1.448;2022-10-14T08:31:33;1.40;;;0.80;;
14847;SDS011;7516;43.570;1.448;2022-10-14T08:34:01;1.90;;;0.80;;
14847;SDS011;7516;43.570;1.448;2022-10-14T08:36:28;1.35;;;0.70;;
14847;SDS011;7516;43.570;1.448;2022-10-14T08:38:57;1.52;;;0.73;;
14847;SDS011;7516;43.570;1.448;2022-10-14T08:41:31;2.50;;;0.70;;
14847;SDS011;7516;43.570;1.448;2022-10-14T08:44:13;1.80;;;0.70;;
14847;SDS011;7516;43.570;1.448;2022-10-14T08:46:49;1.35;;;0.75;;
14847;SDS011;7516;43.570;1.448;2022-10-14T08:49:21;3.35;;;0.73;;
14847;SDS011;7516;43.570;1.448;2022-10-14T08:51:54;1.38;;;0.75;;
14847;SDS011;7516;43.570;1.448;2022-10-14T08:54:28;2.55;;;0.77;;
14847;SDS011;7516;43.570;1.448;2022-10-14T08:57:00;2.08;;;0.80;;
14847;SDS011;7516;43.570;1.448;2022-10-14T08:59:29;1.27;;;0.77;;
14847;SDS011;7516;43.570;1.448;2022-10-14T09:02:10;2.08;;;0.75;;
14847;SDS011;7516;43.570;1.448;2022-10-14T09:04:48;2.10;;;0.80;;
14847;SDS011;7516;43.570;1.448;2022-10-14T09:07:16;2.05;;;0.70;;
14847;SDS011;7516;43.570;1.448;2022-10-14T09:09:46;1.33;;;0.93;;
14847;SDS011;7516;43.570;1.448;2022-10-14T09:12:17;2.47;;;0.80;;
14847;SDS011;7516;43.570;1.448;2022-10-14T09:14:51;1.58;;;0.80;;
14847;SDS011;7516;43.570;1.448;2022-10-14T09:17:30;2.83;;;0.60;;
14847;SDS011;7516;43.570;1.448;2022-10-14T09:20:12;2.80;;;0.70;;
14847;SDS011;7516;43.570;1.448;2022-10-14T09:22:47;1.20;;;0.80;;
14847;SDS011;7516;43.570;1.448;2022-10-14T09:25:24;2.65;;;0.80;;
14847;SDS011;7516;43.570;1.448;2022-10-14T09:27:52;1.95;;;0.80;;
14847;SDS011;7516;43.570;1.448;2022-10-14T09:30:20;3.05;;;0.90;;
14847;SDS011;7516;43.570;1.448;2022-10-14T09:32:49;2.55;;;0.90;;
14847;SDS011;7516;43.570;1.448;2022-10-14T09:35:21;2.45;;;1.05;;
14847;SDS011;7516;43.570;1.448;2022-10-14T09:37:52;3.58;;;1.00;;
14847;SDS011;7516;43.570;1.448;2022-10-14T09:40:23;3.90;;;0.93;;
14847;SDS011;7516;43.570;1.448;2022-10-14T09:42:56;1.35;;;0.88;;
14847;SDS011;7516;43.570;1.448;2022-10-14T09:45:28;2.65;;;0.90;;
14847;SDS011;7516;43.570;1.448;2022-10-14T09:48:13;1.60;;;0.85;;
14847;SDS011;7516;43.570;1.448;2022-10-14T09:50:47;2.03;;;0.77;;
14847;SDS011;7516;43.570;1.448;2022-10-14T09:53:20;3.67;;;1.00;;
14847;SDS011;7516;43.570;1.448;2022-10-14T09:55:53;1.65;;;0.75;;
14847;SDS011;7516;43.570;1.448;2022-10-14T09:58:23;1.27;;;0.80;;
14847;SDS011;7516;43.570;1.448;2022-10-14T10:00:55;2.08;;;0.70;;
14847;SDS011;7516;43.570;1.448;2022-10-14T10:03:27;2.38;;;0.90;;
14847;SDS011;7516;43.570;1.448;2022-10-14T10:05:58;1.05;;;0.80;;
14847;SDS011;7516;43.570;1.448;2022-10-14T10:08:31;2.60;;;0.65;;
14847;SDS011;7516;43.570;1.448;2022-10-14T10:11:00;2.60;;;1.13;;
14847;SDS011;7516;43.570;1.448;2022-10-14T10:13:31;2.78;;;1.13;;
14847;SDS011;7516;43.570;1.448;2022-10-14T10:16:01;3.03;;;1.10;;
14847;SDS011;7516;43.570;1.448;2022-10-14T10:18:31;4.50;;;1.00;;
14847;SDS011;7516;43.570;1.448;2022-10-14T10:20:59;2.70;;;0.95;;
14847;SDS011;7516;43.570;1.448;2022-10-14T10:23:32;1.20;;;0.75;;
14847;SDS011;7516;43.570;1.448;2022-10-14T10:26:13;3.00;;;1.00;;
14847;SDS011;7516;43.570;1.448;2022-10-14T10:28:47;2.72;;;1.08;;
14847;SDS011;7516;43.570;1.448;2022-10-14T10:31:21;4.25;;;1.10;;
14847;SDS011;7516;43.570;1.448;2022-10-14T10:34:00;4.10;;;0.90;;
14847;SDS011;7516;43.570;1.448;2022-10-14T10:36:34;2.33;;;1.20;;
14847;SDS011;7516;43.570;1.448;2022-10-14T10:39:11;1.38;;;0.80;;
14847;SDS011;7516;43.570;1.448;2022-10-14T10:41:51;3.45;;;0.90;;
14847;SDS011;7516;43.570;1.448;2022-10-14T10:44:34;2.80;;;0.95;;
14847;SDS011;7516;43.570;1.448;2022-10-14T10:47:32;2.92;;;0.98;;
14847;SDS011;7516;43.570;1.448;2022-10-14T10:50:22;1.70;;;0.90;;
14847;SDS011;7516;43.570;1.448;2022-10-14T10:56:00;3.55;;;1.13;;
14847;SDS011;7516;43.570;1.448;2022-10-14T10:58:39;2.22;;;0.80;;
14847;SDS011;7516;43.570;1.448;2022-10-14T11:01:15;1.50;;;0.82;;
14847;SDS011;7516;43.570;1.448;2022-10-14T11:04:00;3.30;;;0.85;;
14847;SDS011;7516;43.570;1.448;2022-10-14T11:06:48;1.70;;;0.77;;
14847;SDS011;7516;43.570;1.448;2022-10-14T11:09:40;2.50;;;0.80;;
14847;SDS011;7516;43.570;1.448;2022-10-14T11:12:36;2.05;;;0.75;;
14847;SDS011;7516;43.570;1.448;2022-10-14T11:15:24;2.15;;;0.90;;
14847;SDS011;7516;43.570;1.448;2022-10-14T11:17:59;2.17;;;0.82;;
14847;SDS011;7516;43.570;1.448;2022-10-14T11:20:33;2.45;;;0.88;;
14847;SDS011;7516;43.570;1.448;2022-10-14T11:26:11;3.00;;;0.70;;
14847;SDS011;7516;43.570;1.448;2022-10-14T11:28:50;1.90;;;0.80;;
14847;SDS011;7516;43.570;1.448;2022-10-14T11:31:28;1.90;;;0.57;;
14847;SDS011;7516;43.570;1.448;2022-10-14T11:34:13;2.33;;;0.90;;
14847;SDS011;7516;43.570;1.448;2022-10-14T11:36:57;3.15;;;0.70;;
14847;SDS011;7516;43.570;1.448;2022-10-14T11:39:36;2.00;;;0.98;;
14847;SDS011;7516;43.570;1.448;2022-10-14T11:42:14;1.58;;;0.77;;
14847;SDS011;7516;43.570;1.448;2022-10-14T11:44:53;1.38;;;0.70;;
14847;SDS011;7516;43.570;1.448;2022-10-14T11:47:29;2.53;;;0.70;;
14847;SDS011;7516;43.570;1.448;2022-10-14T11:50:01;2.10;;;0.80;;
14847;SDS011;7516;43.570;1.448;2022-10-14T11:52:37;1.50;;;0.70;;
14847;SDS011;7516;43.570;1.448;2022-10-14T11:55:11;2.70;;;0.80;;
14847;SDS011;7516;43.570;1.448;2022-10-14T11:57:43;2.08;;;0.70;;
14847;SDS011;7516;43.570;1.448;2022-10-14T12:00:14;2.40;;;0.90;;
14847;SDS011;7516;43.570;1.448;2022-10-14T12:02:46;5.80;;;0.85;;
14847;SDS011;7516;43.570;1.448;2022-10-14T12:05:22;1.77;;;0.80;;
14847;SDS011;7516;43.570;1.448;2022-10-14T12:08:03;1.13;;;0.80;;
14847;SDS011;7516;43.570;1.448;2022-10-14T12:10:39;1.90;;;0.88;;
14847;SDS011;7516;43.570;1.448;2022-10-14T12:13:12;3.08;;;0.80;;
14847;SDS011;7516;43.570;1.448;2022-10-14T12:15:43;3.05;;;0.95;;
14847;SDS011;7516;43.570;1.448;2022-10-14T12:18:15;3.45;;;1.02;;
14847;SDS011;7516;43.570;1.448;2022-10-14T12:20:46;1.05;;;0.80;;
14847;SDS011;7516;43.570;1.448;2022-10-14T12:23:23;1.88;;;1.08;;
14847;SDS011;7516;43.570;1.448;2022-10-14T12:25:59;1.35;;;0.85;;
14847;SDS011;7516;43.570;1.448;2022-10-14T12:28:34;1.10;;;0.82;;
14847;SDS011;7516;43.570;1.448;2022-10-14T12:31:18;2.58;;;0.80;;
14847;SDS011;7516;43.570;1.448;2022-10-14T12:36:43;1.52;;;0.90;;
14847;SDS011;7516;43.570;1.448;2022-10-14T12:39:28;3.33;;;0.63;;
14847;SDS011;7516;43.570;1.448;2022-10-14T12:41:59;2.35;;;0.75;;
14847;SDS011;7516;43.570;1.448;2022-10-14T12:44:34;2.67;;;0.80;;
14847;SDS011;7516;43.570;1.448;2022-10-14T12:47:14;2.15;;;0.80;;
14847;SDS011;7516;43.570;1.448;2022-10-14T12:49:45;1.40;;;0.70;;
14847;SDS011;7516;43.570;1.448;2022-10-14T12:52:17;3.15;;;0.73;;
14847;SDS011;7516;43.570;1.448;2022-10-14T12:54:48;1.55;;;0.70;;
14847;SDS011;7516;43.570;1.448;2022-10-14T12:57:21;1.27;;;0.77;;
14847;SDS011;7516;43.570;1.448;2022-10-14T12:59:53;1.88;;;0.73;;
14847;SDS011;7516;43.570;1.448;2022-10-14T13:02:25;1.88;;;0.70;;
14847;SDS011;7516;43.570;1.448;2022-10-14T13:05:00;0.80;;;0.60;;
14847;SDS011;7516;43.570;1.448;2022-10-14T13:07:40;1.52;;;0.70;;
14847;SDS011;7516;43.570;1.448;2022-10-14T13:10:25;1.52;;;0.70;;
14847;SDS011;7516;43.570;1.448;2022-10-14T13:22:33;0.60;;;0.50;;
14847;SDS011;7516;43.570;1.448;2022-10-14T13:25:09;1.15;;;0.60;;
14847;SDS011;7516;43.570;1.448;2022-10-14T13:27:43;1.17;;;0.40;;
14847;SDS011;7516;43.570;1.448;2022-10-14T13:30:30;0.73;;;0.38;;
14847;SDS011;7516;43.570;1.448;2022-10-14T13:33:03;1.50;;;0.45;;
14847;SDS011;7516;43.570;1.448;2022-10-14T13:35:45;1.75;;;0.50;;
14847;SDS011;7516;43.570;1.448;2022-10-14T13:38:18;0.90;;;0.50;;
14847;SDS011;7516;43.570;1.448;2022-10-14T13:40:49;1.13;;;0.60;;
14847;SDS011;7516;43.570;1.448;2022-10-14T13:43:18;2.05;;;0.70;;
14847;SDS011;7516;43.570;1.448;2022-10-14T13:45:51;0.30;;;0.30;;
14847;SDS011;7516;43.570;1.448;2022-10-14T13:48:23;1.63;;;0.70;;
14847;SDS011;7516;43.570;1.448;2022-10-14T13:51:02;1.63;;;0.70;;
14847;SDS011;7516;43.570;1.448;2022-10-14T13:53:48;2.10;;;0.50;;
14847;SDS011;7516;43.570;1.448;2022-10-14T13:56:18;0.75;;;0.30;;
14847;SDS011;7516;43.570;1.448;2022-10-14T13:58:48;0.88;;;0.30;;
14847;SDS011;7516;43.570;1.448;2022-10-14T14:01:16;0.68;;;0.20;;
14847;SDS011;7516;43.570;1.448;2022-10-14T14:03:48;1.05;;;0.30;;
14847;SDS011;7516;43.570;1.448;2022-10-14T14:06:19;2.08;;;0.30;;
14847;SDS011;7516;43.570;1.448;2022-10-14T14:08:48;0.93;;;0.63;;
14847;SDS011;7516;43.570;1.448;2022-10-14T14:11:20;0.75;;;0.30;;
14847;SDS011;7516;43.570;1.448;2022-10-14T14:13:51;1.27;;;0.35;;
14847;SDS011;7516;43.570;1.448;2022-10-14T14:16:23;0.93;;;0.50;;
14847;SDS011;7516;43.570;1.448;2022-10-14T14:18:55;1.60;;;0.50;;
14847;SDS011;7516;43.570;1.448;2022-10-14T14:21:25;0.80;;;0.30;;
14847;SDS011;7516;43.570;1.448;2022-10-14T14:23:53;1.63;;;0.50;;
14847;SDS011;7516;43.570;1.448;2022-10-14T14:26:24;2.22;;;0.63;;
14847;SDS011;7516;43.570;1.448;2022-10-14T14:28:57;1.90;;;0.60;;
14847;SDS011;7516;43.570;1.448;2022-10-14T14:31:28;3.03;;;0.60;;
14847;SDS011;7516;43.570;1.448;2022-10-14T14:33:56;1.25;;;0.50;;
14847;SDS011;7516;43.570;1.448;2022-10-14T14:36:27;0.93;;;0.40;;
14847;SDS011;7516;43.570;1.448;2022-10-14T14:38:56;1.42;;;0.55;;
14847;SDS011;7516;43.570;1.448;2022-10-14T14:41:25;1.85;;;0.68;;
14847;SDS011;7516;43.570;1.448;2022-10-14T14:43:55;1.73;;;0.45;;
14847;SDS011;7516;43.570;1.448;2022-10-14T14:46:26;2.60;;;0.75;;
14847;SDS011;7516;43.570;1.448;2022-10-14T14:48:57;2.00;;;0.50;;
14847;SDS011;7516;43.570;1.448;2022-10-14T14:51:29;1.75;;;0.63;;
14847;SDS011;7516;43.570;1.448;2022-10-14T14:53:59;0.57;;;0.43;;
14847;SDS011;7516;43.570;1.448;2022-10-14T14:56:29;2.10;;;0.50;;
14847;SDS011;7516;43.570;1.448;2022-10-14T14:59:01;2.92;;;0.80;;
14847;SDS011;7516;43.570;1.448;2022-10-14T15:01:34;1.83;;;0.70;;
14847;SDS011;7516;43.570;1.448;2022-10-14T15:04:03;1.55;;;0.45;;
14847;SDS011;7516;43.570;1.448;2022-10-14T15:06:40;2.35;;;0.65;;
14847;SDS011;7516;43.570;1.448;2022-10-14T15:09:09;1.60;;;0.70;;
14847;SDS011;7516;43.570;1.448;2022-10-14T15:11:46;1.73;;;0.60;;
14847;SDS011;7516;43.570;1.448;2022-10-14T15:14:28;1.42;;;0.57;;
14847;SDS011;7516;43.570;1.448;2022-10-14T15:16:59;1.75;;;0.60;;
14847;SDS011;7516;43.570;1.448;2022-10-14T15:19:30;1.48;;;0.60;;
14847;SDS011;7516;43.570;1.448;2022-10-14T15:25:05;2.53;;;0.50;;
14847;SDS011;7516;43.570;1.448;2022-10-14T15:27:41;1.50;;;0.60;;
14847;SDS011;7516;43.570;1.448;2022-10-14T15:30:20;1.52;;;0.50;;
14847;SDS011;7516;43.570;1.448;2022-10-14T15:32:51;1.08;;;0.60;;
14847;SDS011;7516;43.570;1.448;2022-10-14T15:35:21;2.35;;;0.80;;
14847;SDS011;7516;43.570;1.448;2022-10-14T15:37:50;1.85;;;0.70;;
14847;SDS011;7516;43.570;1.448;2022-10-14T15:40:19;2.17;;;0.90;;
14847;SDS011;7516;43.570;1.448;2022-10-14T15:42:48;1.02;;;0.70;;
14847;SDS011;7516;43.570;1.448;2022-10-14T15:45:16;1.45;;;0.80;;
14847;SDS011;7516;43.570;1.448;2022-10-14T15:47:44;1.40;;;0.60;;
14847;SDS011;7516;43.570;1.448;2022-10-14T15:50:17;2.17;;;0.60;;